sensor_id;sensor_type;location;lat;lon;timestamp;pressure;altitude;pressure_sealevel;temperature;humidity
2711;BME280;20721;47.402;8.550;2023-04-28T00:00:54;95959;;;16.26;50.07
2711;BME280;20721;47.402;8.550;2023-04-28T00:02:55;95962;;;16.28;50.04
2711;BME280;20721;47.402;8.550;2023-04-28T00:03:56;95961;;;16.29;50.03
2711;BME280;20721;47.402;8.550;2023-04-28T00:06:54;95951;;;16.30;50.06
2711;BME280;20721;47.402;8.550;2023-04-28T00:09:55;95953;;;16.29;50.08
2711;BME280;20721;47.402;8.550;2023-04-28T00:10:54;95952;;;16.28;49.99
2711;BME280;20721;47.402;8.550;2023-04-28T00:11:55;95953;;;16.27;49.94
2711;BME280;20721;47.402;8.550;2023-04-28T00:12:54;95956;;;16.28;50.00
2711;BME280;20721;47.402;8.550;2023-04-28T00:13:55;95952;;;16.26;50.07
2711;BME280;20721;47.402;8.550;2023-04-28T00:14:54;95956;;;16.24;50.23
2711;BME280;20721;47.402;8.550;2023-04-28T00:15:55;95953;;;16.23;50.28
2711;BME280;20721;47.402;8.550;2023-04-28T00:16:57;95957;;;16.24;50.09
2711;BME280;20721;47.402;8.550;2023-04-28T00:17:54;95960;;;16.21;50.08
2711;BME280;20721;47.402;8.550;2023-04-28T00:18:55;95956;;;16.19;50.20
2711;BME280;20721;47.402;8.550;2023-04-28T00:23:55;95949;;;16.18;50.39
2711;BME280;20721;47.402;8.550;2023-04-28T00:24:54;95950;;;16.15;50.37
2711;BME280;20721;47.402;8.550;2023-04-28T00:25:55;95947;;;16.14;50.56
2711;BME280;20721;47.402;8.550;2023-04-28T00:26:56;95947;;;16.15;50.58
2711;BME280;20721;47.402;8.550;2023-04-28T00:27:59;95942;;;16.16;50.47
2711;BME280;20721;47.402;8.550;2023-04-28T00:28:54;95946;;;16.14;50.61
2711;BME280;20721;47.402;8.550;2023-04-28T00:29:55;95947;;;16.15;50.50
2711;BME280;20721;47.402;8.550;2023-04-28T00:32:55;95947;;;16.18;50.82
2711;BME280;20721;47.402;8.550;2023-04-28T00:33:54;95948;;;16.17;50.72
2711;BME280;20721;47.402;8.550;2023-04-28T00:35:58;95944;;;16.19;50.71
2711;BME280;20721;47.402;8.550;2023-04-28T00:36:55;95944;;;16.18;50.64
2711;BME280;20721;47.402;8.550;2023-04-28T00:39:55;95939;;;16.16;50.84
2711;BME280;20721;47.402;8.550;2023-04-28T00:40:54;95939;;;16.15;50.90
2711;BME280;20721;47.402;8.550;2023-04-28T00:41:54;95936;;;16.12;50.81
2711;BME280;20721;47.402;8.550;2023-04-28T00:42:55;95936;;;16.07;50.84
2711;BME280;20721;47.402;8.550;2023-04-28T00:43:54;95937;;;16.04;50.93
2711;BME280;20721;47.402;8.550;2023-04-28T00:44:55;95937;;;16.01;51.08
2711;BME280;20721;47.402;8.550;2023-04-28T00:45:55;95936;;;16.02;51.22
2711;BME280;20721;47.402;8.550;2023-04-28T00:46:55;95934;;;16.01;51.12
2711;BME280;20721;47.402;8.550;2023-04-28T00:47:56;95936;;;16.04;50.79
2711;BME280;20721;47.402;8.550;2023-04-28T00:49:54;95936;;;16.05;51.07
2711;BME280;20721;47.402;8.550;2023-04-28T00:50:54;95941;;;16.06;51.07
2711;BME280;20721;47.402;8.550;2023-04-28T00:51:55;95937;;;16.08;50.97
2711;BME280;20721;47.402;8.550;2023-04-28T00:53:55;95937;;;16.09;51.04
2711;BME280;20721;47.402;8.550;2023-04-28T00:54:55;95937;;;16.10;51.16
2711;BME280;20721;47.402;8.550;2023-04-28T00:56:55;95937;;;16.11;51.16
2711;BME280;20721;47.402;8.550;2023-04-28T00:57:55;95938;;;16.10;51.26
2711;BME280;20721;47.402;8.550;2023-04-28T00:58:54;95937;;;16.08;51.27
2711;BME280;20721;47.402;8.550;2023-04-28T00:59:55;95942;;;16.05;51.46
2711;BME280;20721;47.402;8.550;2023-04-28T01:01:00;95938;;;16.07;51.37
2711;BME280;20721;47.402;8.550;2023-04-28T01:01:55;95938;;;16.08;51.24
2711;BME280;20721;47.402;8.550;2023-04-28T01:02:55;95940;;;16.10;51.28
2711;BME280;20721;47.402;8.550;2023-04-28T01:05:54;95937;;;16.09;51.06
2711;BME280;20721;47.402;8.550;2023-04-28T01:07:55;95931;;;16.11;51.22
2711;BME280;20721;47.402;8.550;2023-04-28T01:08:55;95932;;;16.08;51.29
2711;BME280;20721;47.402;8.550;2023-04-28T01:09:55;95935;;;16.07;51.29
2711;BME280;20721;47.402;8.550;2023-04-28T01:10:55;95935;;;16.04;51.39
2711;BME280;20721;47.402;8.550;2023-04-28T01:12:55;95933;;;16.03;51.35
2711;BME280;20721;47.402;8.550;2023-04-28T01:13:56;95933;;;15.99;51.45
2711;BME280;20721;47.402;8.550;2023-04-28T01:14:55;95930;;;15.97;51.30
2711;BME280;20721;47.402;8.550;2023-04-28T01:15:55;95933;;;15.95;51.46
2711;BME280;20721;47.402;8.550;2023-04-28T01:16:55;95932;;;15.91;51.10
2711;BME280;20721;47.402;8.550;2023-04-28T01:17:55;95934;;;15.92;51.36
2711;BME280;20721;47.402;8.550;2023-04-28T01:19:55;95932;;;15.93;51.31
2711;BME280;20721;47.402;8.550;2023-04-28T01:20:55;95932;;;15.94;51.21
2711;BME280;20721;47.402;8.550;2023-04-28T01:21:55;95935;;;15.93;51.08
2711;BME280;20721;47.402;8.550;2023-04-28T01:22:55;95941;;;15.88;51.15
2711;BME280;20721;47.402;8.550;2023-04-28T01:23:56;95943;;;15.84;51.34
2711;BME280;20721;47.402;8.550;2023-04-28T01:24:55;95951;;;15.86;51.27
2711;BME280;20721;47.402;8.550;2023-04-28T01:27:55;95964;;;15.88;51.39
2711;BME280;20721;47.402;8.550;2023-04-28T01:28:55;95968;;;15.91;51.96
2711;BME280;20721;47.402;8.550;2023-04-28T01:29:56;95968;;;15.94;52.11
2711;BME280;20721;47.402;8.550;2023-04-28T01:30:55;95967;;;15.95;52.27
2711;BME280;20721;47.402;8.550;2023-04-28T01:31:55;95968;;;15.97;52.66
2711;BME280;20721;47.402;8.550;2023-04-28T01:32:55;95963;;;15.99;53.06
2711;BME280;20721;47.402;8.550;2023-04-28T01:33:55;95952;;;15.98;53.15
2711;BME280;20721;47.402;8.550;2023-04-28T01:34:55;95949;;;16.00;54.11
2711;BME280;20721;47.402;8.550;2023-04-28T01:35:56;95947;;;16.01;53.51
2711;BME280;20721;47.402;8.550;2023-04-28T01:36:55;95950;;;15.95;53.19
2711;BME280;20721;47.402;8.550;2023-04-28T01:37:55;95948;;;15.85;53.58
2711;BME280;20721;47.402;8.550;2023-04-28T01:38:55;95948;;;15.69;53.47
2711;BME280;20721;47.402;8.550;2023-04-28T01:39:55;95945;;;15.55;54.74
2711;BME280;20721;47.402;8.550;2023-04-28T01:40:55;95944;;;15.45;55.19
2711;BME280;20721;47.402;8.550;2023-04-28T01:41:55;95938;;;15.41;55.38
2711;BME280;20721;47.402;8.550;2023-04-28T01:42:55;95938;;;15.42;55.62
2711;BME280;20721;47.402;8.550;2023-04-28T01:43:55;95940;;;15.40;55.68
2711;BME280;20721;47.402;8.550;2023-04-28T01:44:55;95935;;;15.38;56.19
2711;BME280;20721;47.402;8.550;2023-04-28T01:45:55;95930;;;15.36;56.24
2711;BME280;20721;47.402;8.550;2023-04-28T01:47:55;95926;;;15.39;56.94
2711;BME280;20721;47.402;8.550;2023-04-28T01:48:55;95924;;;15.42;56.49
2711;BME280;20721;47.402;8.550;2023-04-28T01:49:55;95928;;;15.46;56.50
2711;BME280;20721;47.402;8.550;2023-04-28T01:50:55;95924;;;15.48;56.32
2711;BME280;20721;47.402;8.550;2023-04-28T01:51:55;95926;;;15.52;56.36
2711;BME280;20721;47.402;8.550;2023-04-28T01:52:55;95920;;;15.50;56.35
2711;BME280;20721;47.402;8.550;2023-04-28T01:53:55;95915;;;15.44;57.40
2711;BME280;20721;47.402;8.550;2023-04-28T01:54:55;95919;;;15.42;57.86
2711;BME280;20721;47.402;8.550;2023-04-28T01:55:55;95915;;;15.43;58.50
2711;BME280;20721;47.402;8.550;2023-04-28T01:56:55;95918;;;15.40;58.67
2711;BME280;20721;47.402;8.550;2023-04-28T01:57:57;95921;;;15.42;58.31
2711;BME280;20721;47.402;8.550;2023-04-28T01:58:55;95923;;;15.45;58.50
2711;BME280;20721;47.402;8.550;2023-04-28T01:59:55;95922;;;15.50;58.51
2711;BME280;20721;47.402;8.550;2023-04-28T02:00:55;95921;;;15.54;58.71
2711;BME280;20721;47.402;8.550;2023-04-28T02:01:55;95925;;;15.58;59.02
2711;BME280;20721;47.402;8.550;2023-04-28T02:02:55;95928;;;15.61;59.14
2711;BME280;20721;47.402;8.550;2023-04-28T02:03:55;95929;;;15.63;59.02
2711;BME280;20721;47.402;8.550;2023-04-28T02:04:57;95932;;;15.65;59.29
2711;BME280;20721;47.402;8.550;2023-04-28T02:05:55;95932;;;15.67;58.51
2711;BME280;20721;47.402;8.550;2023-04-28T02:06:55;95936;;;15.69;59.07
2711;BME280;20721;47.402;8.550;2023-04-28T02:07:55;95935;;;15.70;58.65
2711;BME280;20721;47.402;8.550;2023-04-28T02:08:55;95937;;;15.69;58.55
2711;BME280;20721;47.402;8.550;2023-04-28T02:09:55;95936;;;15.66;59.08
2711;BME280;20721;47.402;8.550;2023-04-28T02:10:56;95937;;;15.64;59.01
2711;BME280;20721;47.402;8.550;2023-04-28T02:11:55;95931;;;15.63;58.73
2711;BME280;20721;47.402;8.550;2023-04-28T02:12:55;95934;;;15.62;59.35
2711;BME280;20721;47.402;8.550;2023-04-28T02:13:55;95936;;;15.61;59.42
2711;BME280;20721;47.402;8.550;2023-04-28T02:15:55;95928;;;15.64;59.67
2711;BME280;20721;47.402;8.550;2023-04-28T02:16:55;95926;;;15.65;59.31
2711;BME280;20721;47.402;8.550;2023-04-28T02:17:55;95925;;;15.62;58.54
2711;BME280;20721;47.402;8.550;2023-04-28T02:18:55;95920;;;15.61;58.92
2711;BME280;20721;47.402;8.550;2023-04-28T02:20:55;95908;;;15.57;58.87
2711;BME280;20721;47.402;8.550;2023-04-28T02:21:55;95905;;;15.49;59.48
2711;BME280;20721;47.402;8.550;2023-04-28T02:22:55;95913;;;15.44;60.30
2711;BME280;20721;47.402;8.550;2023-04-28T02:23:55;95913;;;15.39;60.10
2711;BME280;20721;47.402;8.550;2023-04-28T02:24:55;95915;;;15.35;60.81
2711;BME280;20721;47.402;8.550;2023-04-28T02:26:55;95911;;;15.38;60.60
2711;BME280;20721;47.402;8.550;2023-04-28T02:27:56;95920;;;15.41;60.81
2711;BME280;20721;47.402;8.550;2023-04-28T02:28:55;95920;;;15.43;61.36
2711;BME280;20721;47.402;8.550;2023-04-28T02:29:55;95924;;;15.45;61.08
2711;BME280;20721;47.402;8.550;2023-04-28T02:31:03;95926;;;15.50;60.95
2711;BME280;20721;47.402;8.550;2023-04-28T02:31:55;95932;;;15.52;60.59
2711;BME280;20721;47.402;8.550;2023-04-28T02:32:55;95933;;;15.54;60.67
2711;BME280;20721;47.402;8.550;2023-04-28T02:33:55;95937;;;15.56;60.71
2711;BME280;20721;47.402;8.550;2023-04-28T02:34:55;95942;;;15.59;60.82
2711;BME280;20721;47.402;8.550;2023-04-28T02:35:58;95943;;;15.60;60.60
2711;BME280;20721;47.402;8.550;2023-04-28T02:36:55;95945;;;15.61;60.75
2711;BME280;20721;47.402;8.550;2023-04-28T02:39:55;95943;;;15.62;60.70
2711;BME280;20721;47.402;8.550;2023-04-28T02:40:56;95941;;;15.63;61.02
2711;BME280;20721;47.402;8.550;2023-04-28T02:44:55;95935;;;15.62;61.20
2711;BME280;20721;47.402;8.550;2023-04-28T02:45:55;95941;;;15.61;61.04
2711;BME280;20721;47.402;8.550;2023-04-28T02:46:55;95948;;;15.60;61.32
2711;BME280;20721;47.402;8.550;2023-04-28T02:48:55;95951;;;15.62;61.34
2711;BME280;20721;47.402;8.550;2023-04-28T02:57:55;95953;;;15.60;62.06
2711;BME280;20721;47.402;8.550;2023-04-28T02:58:55;95949;;;15.61;62.01
2711;BME280;20721;47.402;8.550;2023-04-28T02:59:55;95956;;;15.60;61.88
2711;BME280;20721;47.402;8.550;2023-04-28T03:00:55;95954;;;15.56;61.73
2711;BME280;20721;47.402;8.550;2023-04-28T03:01:55;95954;;;15.54;62.17
2711;BME280;20721;47.402;8.550;2023-04-28T03:02:55;95951;;;15.52;62.15
2711;BME280;20721;47.402;8.550;2023-04-28T03:03:55;95949;;;15.49;61.78
2711;BME280;20721;47.402;8.550;2023-04-28T03:04:55;95949;;;15.43;61.65
2711;BME280;20721;47.402;8.550;2023-04-28T03:05:55;95943;;;15.36;61.91
2711;BME280;20721;47.402;8.550;2023-04-28T03:06:55;95938;;;15.31;61.87
2711;BME280;20721;47.402;8.550;2023-04-28T03:07:55;95937;;;15.16;62.56
2711;BME280;20721;47.402;8.550;2023-04-28T03:08:55;95935;;;15.06;62.85
2711;BME280;20721;47.402;8.550;2023-04-28T03:09:55;95932;;;15.01;63.12
2711;BME280;20721;47.402;8.550;2023-04-28T03:10:55;95928;;;14.88;63.91
2711;BME280;20721;47.402;8.550;2023-04-28T03:11:55;95923;;;14.75;63.93
2711;BME280;20721;47.402;8.550;2023-04-28T03:12:55;95928;;;14.67;64.48
2711;BME280;20721;47.402;8.550;2023-04-28T03:13:55;95930;;;14.64;65.32
2711;BME280;20721;47.402;8.550;2023-04-28T03:14:55;95933;;;14.67;65.21
2711;BME280;20721;47.402;8.550;2023-04-28T03:15:55;95930;;;14.73;64.39
2711;BME280;20721;47.402;8.550;2023-04-28T03:16:56;95933;;;14.79;64.51
2711;BME280;20721;47.402;8.550;2023-04-28T03:17:55;95938;;;14.84;64.66
2711;BME280;20721;47.402;8.550;2023-04-28T03:18:55;95942;;;14.89;65.02
2711;BME280;20721;47.402;8.550;2023-04-28T03:19:55;95950;;;14.95;64.71
2711;BME280;20721;47.402;8.550;2023-04-28T03:20:55;95958;;;14.99;64.73
2711;BME280;20721;47.402;8.550;2023-04-28T03:21:55;95957;;;15.02;64.74
2711;BME280;20721;47.402;8.550;2023-04-28T03:22:55;95956;;;15.06;65.24
2711;BME280;20721;47.402;8.550;2023-04-28T03:23:55;95959;;;15.11;65.30
2711;BME280;20721;47.402;8.550;2023-04-28T03:24:55;95959;;;15.16;64.69
2711;BME280;20721;47.402;8.550;2023-04-28T03:25:55;95957;;;15.19;64.83
2711;BME280;20721;47.402;8.550;2023-04-28T03:26:55;95957;;;15.20;64.69
2711;BME280;20721;47.402;8.550;2023-04-28T03:27:55;95949;;;15.19;64.60
2711;BME280;20721;47.402;8.550;2023-04-28T03:28:55;95945;;;15.12;64.25
2711;BME280;20721;47.402;8.550;2023-04-28T03:29:55;95943;;;15.02;64.81
2711;BME280;20721;47.402;8.550;2023-04-28T03:30:55;95947;;;15.00;65.38
2711;BME280;20721;47.402;8.550;2023-04-28T03:33:55;95939;;;15.01;65.10
2711;BME280;20721;47.402;8.550;2023-04-28T03:34:55;95932;;;15.02;64.83
2711;BME280;20721;47.402;8.550;2023-04-28T03:35:55;95926;;;15.01;65.27
2711;BME280;20721;47.402;8.550;2023-04-28T03:36:55;95923;;;14.98;65.04
2711;BME280;20721;47.402;8.550;2023-04-28T03:37:55;95925;;;14.97;65.49
2711;BME280;20721;47.402;8.550;2023-04-28T03:39:55;95923;;;14.94;65.54
2711;BME280;20721;47.402;8.550;2023-04-28T03:41:55;95924;;;14.93;65.81
2711;BME280;20721;47.402;8.550;2023-04-28T03:42:55;95924;;;14.94;65.80
2711;BME280;20721;47.402;8.550;2023-04-28T03:43:55;95923;;;14.97;66.05
2711;BME280;20721;47.402;8.550;2023-04-28T03:44:55;95927;;;14.98;65.47
2711;BME280;20721;47.402;8.550;2023-04-28T03:47:55;95933;;;14.97;65.31
2711;BME280;20721;47.402;8.550;2023-04-28T03:48:55;95931;;;14.93;64.99
2711;BME280;20721;47.402;8.550;2023-04-28T03:49:57;95932;;;14.87;65.17
2711;BME280;20721;47.402;8.550;2023-04-28T03:50:55;95932;;;14.81;65.28
2711;BME280;20721;47.402;8.550;2023-04-28T03:51:55;95937;;;14.75;65.70
2711;BME280;20721;47.402;8.550;2023-04-28T03:52:55;95935;;;14.70;66.00
2711;BME280;20721;47.402;8.550;2023-04-28T03:53:55;95938;;;14.66;65.87
2711;BME280;20721;47.402;8.550;2023-04-28T03:54:55;95937;;;14.63;65.93
2711;BME280;20721;47.402;8.550;2023-04-28T03:56:55;95937;;;14.62;65.44
2711;BME280;20721;47.402;8.550;2023-04-28T03:57:55;95942;;;14.59;65.81
2711;BME280;20721;47.402;8.550;2023-04-28T03:58:55;95937;;;14.50;66.05
2711;BME280;20721;47.402;8.550;2023-04-28T03:59:55;95936;;;14.46;65.86
2711;BME280;20721;47.402;8.550;2023-04-28T04:00:55;95936;;;14.48;66.06
2711;BME280;20721;47.402;8.550;2023-04-28T04:01:55;95939;;;14.50;65.92
2711;BME280;20721;47.402;8.550;2023-04-28T04:02:55;95941;;;14.53;66.41
2711;BME280;20721;47.402;8.550;2023-04-28T04:03:55;95947;;;14.58;66.87
2711;BME280;20721;47.402;8.550;2023-04-28T04:04:55;95948;;;14.63;67.04
2711;BME280;20721;47.402;8.550;2023-04-28T04:05:55;95950;;;14.67;66.70
2711;BME280;20721;47.402;8.550;2023-04-28T04:06:55;95952;;;14.71;67.05
2711;BME280;20721;47.402;8.550;2023-04-28T04:07:55;95955;;;14.75;66.77
2711;BME280;20721;47.402;8.550;2023-04-28T04:08:55;95954;;;14.77;66.47
2711;BME280;20721;47.402;8.550;2023-04-28T04:09:56;95958;;;14.79;66.81
2711;BME280;20721;47.402;8.550;2023-04-28T04:10:55;95960;;;14.78;66.60
2711;BME280;20721;47.402;8.550;2023-04-28T04:11:55;95954;;;14.79;65.89
2711;BME280;20721;47.402;8.550;2023-04-28T04:16:55;95947;;;14.82;66.75
2711;BME280;20721;47.402;8.550;2023-04-28T04:17:55;95944;;;14.80;66.01
2711;BME280;20721;47.402;8.550;2023-04-28T04:18:55;95952;;;14.68;65.87
2711;BME280;20721;47.402;8.550;2023-04-28T04:19:55;95956;;;14.64;66.96
2711;BME280;20721;47.402;8.550;2023-04-28T04:20:58;95954;;;14.66;67.28
2711;BME280;20721;47.402;8.550;2023-04-28T04:21:55;95956;;;14.71;67.16
2711;BME280;20721;47.402;8.550;2023-04-28T04:22:55;95955;;;14.77;66.88
2711;BME280;20721;47.402;8.550;2023-04-28T04:23:55;95954;;;14.80;66.72
2711;BME280;20721;47.402;8.550;2023-04-28T04:25:55;95961;;;14.78;66.88
2711;BME280;20721;47.402;8.550;2023-04-28T04:27:55;95948;;;14.79;67.10
2711;BME280;20721;47.402;8.550;2023-04-28T04:28:55;95950;;;14.81;66.65
2711;BME280;20721;47.402;8.550;2023-04-28T04:29:55;95946;;;14.77;65.89
2711;BME280;20721;47.402;8.550;2023-04-28T04:30:55;95949;;;14.75;66.04
2711;BME280;20721;47.402;8.550;2023-04-28T04:32:55;95954;;;14.74;66.89
2711;BME280;20721;47.402;8.550;2023-04-28T04:33:55;95955;;;14.76;67.00
2711;BME280;20721;47.402;8.550;2023-04-28T04:34:56;95965;;;14.79;66.96
2711;BME280;20721;47.402;8.550;2023-04-28T04:35:55;95970;;;14.84;67.04
2711;BME280;20721;47.402;8.550;2023-04-28T04:36:55;95970;;;14.86;66.92
2711;BME280;20721;47.402;8.550;2023-04-28T04:37:55;95972;;;14.88;66.77
2711;BME280;20721;47.402;8.550;2023-04-28T04:38:55;95970;;;14.91;66.79
2711;BME280;20721;47.402;8.550;2023-04-28T04:39:55;95966;;;14.94;66.33
2711;BME280;20721;47.402;8.550;2023-04-28T04:40:55;95961;;;14.97;66.15
2711;BME280;20721;47.402;8.550;2023-04-28T04:41:55;95963;;;14.95;65.61
2711;BME280;20721;47.402;8.550;2023-04-28T04:42:55;95962;;;14.92;65.90
2711;BME280;20721;47.402;8.550;2023-04-28T04:43:55;95958;;;14.91;66.57
2711;BME280;20721;47.402;8.550;2023-04-28T04:44:55;95963;;;14.88;66.24
2711;BME280;20721;47.402;8.550;2023-04-28T04:45:55;95961;;;14.83;66.41
2711;BME280;20721;47.402;8.550;2023-04-28T04:46:55;95970;;;14.75;66.46
2711;BME280;20721;47.402;8.550;2023-04-28T04:47:55;95968;;;14.73;66.79
2711;BME280;20721;47.402;8.550;2023-04-28T04:48:55;95969;;;14.72;66.95
2711;BME280;20721;47.402;8.550;2023-04-28T04:49:55;95975;;;14.73;67.04
2711;BME280;20721;47.402;8.550;2023-04-28T04:50:55;95973;;;14.75;66.82
2711;BME280;20721;47.402;8.550;2023-04-28T04:51:55;95976;;;14.77;66.23
2711;BME280;20721;47.402;8.550;2023-04-28T04:53:55;95982;;;14.75;66.74
2711;BME280;20721;47.402;8.550;2023-04-28T04:54:55;95981;;;14.77;66.48
2711;BME280;20721;47.402;8.550;2023-04-28T04:55:55;95974;;;14.76;66.96
2711;BME280;20721;47.402;8.550;2023-04-28T04:57:58;95974;;;14.77;66.95
2711;BME280;20721;47.402;8.550;2023-04-28T04:59:55;95975;;;14.72;66.25
2711;BME280;20721;47.402;8.550;2023-04-28T05:00:55;95974;;;14.66;66.57
2711;BME280;20721;47.402;8.550;2023-04-28T05:01:55;95974;;;14.64;66.40
2711;BME280;20721;47.402;8.550;2023-04-28T05:02:55;95981;;;14.59;66.44
2711;BME280;20721;47.402;8.550;2023-04-28T05:03:55;95977;;;14.57;66.60
2711;BME280;20721;47.402;8.550;2023-04-28T05:05:05;95973;;;14.55;67.24
2711;BME280;20721;47.402;8.550;2023-04-28T05:05:55;95974;;;14.56;66.83
2711;BME280;20721;47.402;8.550;2023-04-28T05:07:55;95968;;;14.58;66.58
2711;BME280;20721;47.402;8.550;2023-04-28T05:08:57;95979;;;14.59;66.84
2711;BME280;20721;47.402;8.550;2023-04-28T05:09:55;95975;;;14.58;67.13
2711;BME280;20721;47.402;8.550;2023-04-28T05:10:55;95982;;;14.62;67.43
2711;BME280;20721;47.402;8.550;2023-04-28T05:11:55;95984;;;14.65;67.47
2711;BME280;20721;47.402;8.550;2023-04-28T05:12:55;95985;;;14.67;67.59
2711;BME280;20721;47.402;8.550;2023-04-28T05:13:55;95985;;;14.71;67.33
2711;BME280;20721;47.402;8.550;2023-04-28T05:14:55;95985;;;14.73;67.29
2711;BME280;20721;47.402;8.550;2023-04-28T05:15:55;95983;;;14.77;67.13
2711;BME280;20721;47.402;8.550;2023-04-28T05:16:55;95979;;;14.79;67.25
2711;BME280;20721;47.402;8.550;2023-04-28T05:17:55;95985;;;14.81;67.14
2711;BME280;20721;47.402;8.550;2023-04-28T05:18:55;95987;;;14.84;67.16
2711;BME280;20721;47.402;8.550;2023-04-28T05:19:55;95993;;;14.87;67.14
2711;BME280;20721;47.402;8.550;2023-04-28T05:20:55;95996;;;14.90;67.04
2711;BME280;20721;47.402;8.550;2023-04-28T05:21:55;95996;;;14.91;66.89
2711;BME280;20721;47.402;8.550;2023-04-28T05:22:55;95996;;;14.92;66.79
2711;BME280;20721;47.402;8.550;2023-04-28T05:24:55;96001;;;14.93;66.67
2711;BME280;20721;47.402;8.550;2023-04-28T05:25:56;95998;;;14.92;66.38
2711;BME280;20721;47.402;8.550;2023-04-28T05:26:57;95995;;;14.90;66.89
2711;BME280;20721;47.402;8.550;2023-04-28T05:27:55;95994;;;14.86;66.79
2711;BME280;20721;47.402;8.550;2023-04-28T05:28:55;95995;;;14.85;66.73
2711;BME280;20721;47.402;8.550;2023-04-28T05:29:55;95992;;;14.84;66.92
2711;BME280;20721;47.402;8.550;2023-04-28T05:30:56;95993;;;14.81;67.21
2711;BME280;20721;47.402;8.550;2023-04-28T05:31:55;95997;;;14.83;67.10
2711;BME280;20721;47.402;8.550;2023-04-28T05:32:55;95996;;;14.84;67.09
2711;BME280;20721;47.402;8.550;2023-04-28T05:33:55;96000;;;14.83;67.02
2711;BME280;20721;47.402;8.550;2023-04-28T05:34:58;96006;;;14.85;67.19
2711;BME280;20721;47.402;8.550;2023-04-28T05:36:55;96011;;;14.86;67.24
2711;BME280;20721;47.402;8.550;2023-04-28T05:37:55;96017;;;14.87;67.43
2711;BME280;20721;47.402;8.550;2023-04-28T05:38:55;96017;;;14.89;67.29
2711;BME280;20721;47.402;8.550;2023-04-28T05:39:55;96019;;;14.91;67.17
2711;BME280;20721;47.402;8.550;2023-04-28T05:40:55;96018;;;14.93;66.97
2711;BME280;20721;47.402;8.550;2023-04-28T05:42:55;96018;;;14.95;67.03
2711;BME280;20721;47.402;8.550;2023-04-28T05:44:55;96016;;;14.92;66.65
2711;BME280;20721;47.402;8.550;2023-04-28T05:45:55;96011;;;14.91;66.81
2711;BME280;20721;47.402;8.550;2023-04-28T05:46:55;96011;;;14.92;66.61
2711;BME280;20721;47.402;8.550;2023-04-28T05:47:55;96009;;;14.90;66.42
2711;BME280;20721;47.402;8.550;2023-04-28T05:48:55;96005;;;14.88;66.38
2711;BME280;20721;47.402;8.550;2023-04-28T05:49:55;96007;;;14.84;66.47
2711;BME280;20721;47.402;8.550;2023-04-28T05:50:55;96008;;;14.80;66.50
2711;BME280;20721;47.402;8.550;2023-04-28T05:51:55;96004;;;14.72;66.67
2711;BME280;20721;47.402;8.550;2023-04-28T05:52:56;96004;;;14.65;66.63
2711;BME280;20721;47.402;8.550;2023-04-28T05:53:55;95994;;;14.56;67.06
2711;BME280;20721;47.402;8.550;2023-04-28T05:54:55;95989;;;14.51;67.08
2711;BME280;20721;47.402;8.550;2023-04-28T05:55:55;95988;;;14.50;67.34
2711;BME280;20721;47.402;8.550;2023-04-28T05:56:56;95989;;;14.42;66.71
2711;BME280;20721;47.402;8.550;2023-04-28T05:57:55;95990;;;14.27;66.96
2711;BME280;20721;47.402;8.550;2023-04-28T05:58:55;95993;;;14.17;67.58
2711;BME280;20721;47.402;8.550;2023-04-28T05:59:55;95997;;;14.13;68.33
2711;BME280;20721;47.402;8.550;2023-04-28T06:00:55;95999;;;14.18;68.30
2711;BME280;20721;47.402;8.550;2023-04-28T06:01:55;95998;;;14.22;67.53
2711;BME280;20721;47.402;8.550;2023-04-28T06:02:56;96004;;;14.25;67.35
2711;BME280;20721;47.402;8.550;2023-04-28T06:03:57;96004;;;14.29;67.35
2711;BME280;20721;47.402;8.550;2023-04-28T06:04:56;96007;;;14.31;67.90
2711;BME280;20721;47.402;8.550;2023-04-28T06:05:55;96010;;;14.36;68.23
2711;BME280;20721;47.402;8.550;2023-04-28T06:06:55;96012;;;14.41;68.37
2711;BME280;20721;47.402;8.550;2023-04-28T06:07:55;96017;;;14.47;68.02
2711;BME280;20721;47.402;8.550;2023-04-28T06:08:55;96019;;;14.53;68.10
2711;BME280;20721;47.402;8.550;2023-04-28T06:09:55;96012;;;14.59;67.99
2711;BME280;20721;47.402;8.550;2023-04-28T06:10:55;96005;;;14.63;67.90
2711;BME280;20721;47.402;8.550;2023-04-28T06:11:58;96005;;;14.67;67.40
2711;BME280;20721;47.402;8.550;2023-04-28T06:12:55;96007;;;14.68;67.13
2711;BME280;20721;47.402;8.550;2023-04-28T06:13:55;96010;;;14.65;66.92
2711;BME280;20721;47.402;8.550;2023-04-28T06:15:55;96008;;;14.66;67.02
2711;BME280;20721;47.402;8.550;2023-04-28T06:17:56;96011;;;14.67;67.65
2711;BME280;20721;47.402;8.550;2023-04-28T06:18:55;96017;;;14.70;67.48
2711;BME280;20721;47.402;8.550;2023-04-28T06:19:57;96016;;;14.71;67.67
2711;BME280;20721;47.402;8.550;2023-04-28T06:20:56;96020;;;14.73;67.30
2711;BME280;20721;47.402;8.550;2023-04-28T06:21:55;96021;;;14.74;67.34
2711;BME280;20721;47.402;8.550;2023-04-28T06:22:55;96017;;;14.77;67.24
2711;BME280;20721;47.402;8.550;2023-04-28T06:23:55;96015;;;14.78;67.35
2711;BME280;20721;47.402;8.550;2023-04-28T06:24:55;96008;;;14.80;67.11
2711;BME280;20721;47.402;8.550;2023-04-28T06:25:55;96005;;;14.83;66.58
2711;BME280;20721;47.402;8.550;2023-04-28T06:27:55;95998;;;14.69;66.62
2711;BME280;20721;47.402;8.550;2023-04-28T06:28:55;95999;;;14.58;66.89
2711;BME280;20721;47.402;8.550;2023-04-28T06:29:55;95999;;;14.53;67.39
2711;BME280;20721;47.402;8.550;2023-04-28T06:30:55;96003;;;14.49;67.53
2711;BME280;20721;47.402;8.550;2023-04-28T06:31:56;95996;;;14.51;67.83
2711;BME280;20721;47.402;8.550;2023-04-28T06:32:56;95993;;;14.55;67.74
2711;BME280;20721;47.402;8.550;2023-04-28T06:33:55;95993;;;14.57;67.36
2711;BME280;20721;47.402;8.550;2023-04-28T06:34:58;95991;;;14.60;67.20
2711;BME280;20721;47.402;8.550;2023-04-28T06:35:55;95986;;;14.58;66.72
2711;BME280;20721;47.402;8.550;2023-04-28T06:36:57;95988;;;14.62;67.02
2711;BME280;20721;47.402;8.550;2023-04-28T06:37:55;95992;;;14.63;67.08
2711;BME280;20721;47.402;8.550;2023-04-28T06:38:56;95992;;;14.65;66.98
2711;BME280;20721;47.402;8.550;2023-04-28T06:41:56;95984;;;14.66;67.00
2711;BME280;20721;47.402;8.550;2023-04-28T06:42:55;95983;;;14.68;66.87
2711;BME280;20721;47.402;8.550;2023-04-28T06:43:56;95983;;;14.65;66.71
2711;BME280;20721;47.402;8.550;2023-04-28T06:44:55;95982;;;14.51;66.94